sensor_id;sensor_type;location;lat;lon;timestamp;P1;durP1;ratioP1;P2;durP2;ratioP2
48241;SDS011;34041;51.812;4.622;2023-04-07T00:02:36;5.23;;;2.90;;
48241;SDS011;34041;51.812;4.622;2023-04-07T00:05:37;4.55;;;2.80;;
48241;SDS011;34041;51.812;4.622;2023-04-07T00:08:37;3.80;;;2.47;;
48241;SDS011;34041;51.812;4.622;2023-04-07T00:11:38;4.88;;;2.65;;
48241;SDS011;34041;51.812;4.622;2023-04-07T00:14:38;3.95;;;2.15;;
48241;SDS011;34041;51.812;4.622;2023-04-07T00:17:38;4.57;;;2.73;;
48241;SDS011;34041;51.812;4.622;2023-04-07T00:20:39;3.20;;;2.70;;
48241;SDS011;34041;51.812;4.622;2023-04-07T00:23:39;4.57;;;2.50;;
48241;SDS011;34041;51.812;4.622;2023-04-07T00:26:39;6.23;;;3.17;;
48241;SDS011;34041;51.812;4.622;2023-04-07T00:29:39;4.90;;;2.72;;
48241;SDS011;34041;51.812;4.622;2023-04-07T00:32:42;5.10;;;3.20;;
48241;SDS011;34041;51.812;4.622;2023-04-07T00:35:42;7.50;;;2.90;;
48241;SDS011;34041;51.812;4.622;2023-04-07T00:38:43;6.80;;;2.30;;
48241;SDS011;34041;51.812;4.622;2023-04-07T00:41:43;5.32;;;2.85;;
48241;SDS011;34041;51.812;4.622;2023-04-07T00:44:44;7.63;;;2.65;;
48241;SDS011;34041;51.812;4.622;2023-04-07T00:47:44;7.22;;;3.42;;
48241;SDS011;34041;51.812;4.622;2023-04-07T00:50:44;6.53;;;3.20;;
48241;SDS011;34041;51.812;4.622;2023-04-07T00:53:45;5.88;;;2.63;;
48241;SDS011;34041;51.812;4.622;2023-04-07T00:56:45;5.50;;;2.93;;
48241;SDS011;34041;51.812;4.622;2023-04-07T00:59:45;6.33;;;2.70;;
48241;SDS011;34041;51.812;4.622;2023-04-07T01:02:56;4.17;;;2.70;;
48241;SDS011;34041;51.812;4.622;2023-04-07T01:05:59;5.43;;;2.63;;
48241;SDS011;34041;51.812;4.622;2023-04-07T01:09:08;6.50;;;2.80;;
48241;SDS011;34041;51.812;4.622;2023-04-07T01:12:23;5.15;;;2.55;;
48241;SDS011;34041;51.812;4.622;2023-04-07T01:15:28;6.57;;;2.70;;
48241;SDS011;34041;51.812;4.622;2023-04-07T01:18:32;5.60;;;2.83;;
48241;SDS011;34041;51.812;4.622;2023-04-07T01:21:33;8.55;;;3.03;;
48241;SDS011;34041;51.812;4.622;2023-04-07T01:31:02;4.10;;;2.40;;
48241;SDS011;34041;51.812;4.622;2023-04-07T01:34:03;4.65;;;2.50;;
48241;SDS011;34041;51.812;4.622;2023-04-07T01:37:05;5.68;;;2.67;;
48241;SDS011;34041;51.812;4.622;2023-04-07T01:40:06;6.55;;;3.05;;
48241;SDS011;34041;51.812;4.622;2023-04-07T01:43:07;5.22;;;2.95;;
48241;SDS011;34041;51.812;4.622;2023-04-07T01:46:08;6.70;;;2.55;;
48241;SDS011;34041;51.812;4.622;2023-04-07T01:49:08;6.20;;;2.27;;
48241;SDS011;34041;51.812;4.622;2023-04-07T01:52:10;6.75;;;2.90;;
48241;SDS011;34041;51.812;4.622;2023-04-07T01:55:11;6.13;;;2.47;;
48241;SDS011;34041;51.812;4.622;2023-04-07T01:58:11;6.93;;;2.75;;
48241;SDS011;34041;51.812;4.622;2023-04-07T02:01:12;5.03;;;2.50;;
48241;SDS011;34041;51.812;4.622;2023-04-07T02:07:24;7.78;;;2.90;;
48241;SDS011;34041;51.812;4.622;2023-04-07T02:10:27;5.20;;;2.55;;
48241;SDS011;34041;51.812;4.622;2023-04-07T02:13:28;4.88;;;2.40;;
48241;SDS011;34041;51.812;4.622;2023-04-07T02:16:28;6.28;;;2.30;;
48241;SDS011;34041;51.812;4.622;2023-04-07T02:19:30;6.90;;;3.03;;
48241;SDS011;34041;51.812;4.622;2023-04-07T02:22:31;5.63;;;2.30;;
48241;SDS011;34041;51.812;4.622;2023-04-07T02:25:32;4.43;;;2.20;;
48241;SDS011;34041;51.812;4.622;2023-04-07T02:28:33;5.20;;;2.50;;
48241;SDS011;34041;51.812;4.622;2023-04-07T02:31:33;7.50;;;2.80;;
48241;SDS011;34041;51.812;4.622;2023-04-07T02:34:33;7.00;;;2.67;;
48241;SDS011;34041;51.812;4.622;2023-04-07T02:37:33;7.00;;;2.93;;
48241;SDS011;34041;51.812;4.622;2023-04-07T02:40:34;7.20;;;3.35;;
48241;SDS011;34041;51.812;4.622;2023-04-07T02:43:35;8.85;;;2.83;;
48241;SDS011;34041;51.812;4.622;2023-04-07T02:46:35;5.07;;;1.87;;
48241;SDS011;34041;51.812;4.622;2023-04-07T02:49:36;7.50;;;2.93;;
48241;SDS011;34041;51.812;4.622;2023-04-07T02:52:36;7.87;;;3.00;;
48241;SDS011;34041;51.812;4.622;2023-04-07T02:55:36;7.72;;;2.13;;
48241;SDS011;34041;51.812;4.622;2023-04-07T02:58:36;3.40;;;2.30;;
48241;SDS011;34041;51.812;4.622;2023-04-07T03:01:36;6.27;;;2.67;;
48241;SDS011;34041;51.812;4.622;2023-04-07T03:04:37;6.50;;;2.60;;
48241;SDS011;34041;51.812;4.622;2023-04-07T03:07:38;8.50;;;2.95;;
48241;SDS011;34041;51.812;4.622;2023-04-07T03:10:38;6.20;;;2.83;;
48241;SDS011;34041;51.812;4.622;2023-04-07T03:13:38;7.70;;;3.10;;
48241;SDS011;34041;51.812;4.622;2023-04-07T03:16:38;6.43;;;3.33;;
48241;SDS011;34041;51.812;4.622;2023-04-07T03:19:39;6.82;;;2.83;;
48241;SDS011;34041;51.812;4.622;2023-04-07T03:22:39;6.88;;;3.00;;
48241;SDS011;34041;51.812;4.622;2023-04-07T03:25:40;5.95;;;3.45;;
48241;SDS011;34041;51.812;4.622;2023-04-07T03:28:40;6.63;;;3.78;;
48241;SDS011;34041;51.812;4.622;2023-04-07T03:31:40;9.48;;;4.68;;
48241;SDS011;34041;51.812;4.622;2023-04-07T03:34:41;7.82;;;4.00;;
48241;SDS011;34041;51.812;4.622;2023-04-07T03:37:41;7.30;;;3.83;;
48241;SDS011;34041;51.812;4.622;2023-04-07T03:40:41;5.50;;;3.22;;
48241;SDS011;34041;51.812;4.622;2023-04-07T03:43:42;5.43;;;3.50;;
48241;SDS011;34041;51.812;4.622;2023-04-07T03:46:42;8.80;;;4.40;;
48241;SDS011;34041;51.812;4.622;2023-04-07T03:49:44;7.85;;;3.80;;
48241;SDS011;34041;51.812;4.622;2023-04-07T03:52:44;8.80;;;4.78;;
48241;SDS011;34041;51.812;4.622;2023-04-07T03:55:45;6.82;;;4.05;;
48241;SDS011;34041;51.812;4.622;2023-04-07T03:58:45;7.55;;;4.22;;
48241;SDS011;34041;51.812;4.622;2023-04-07T04:01:45;10.00;;;5.03;;
48241;SDS011;34041;51.812;4.622;2023-04-07T04:04:45;9.00;;;4.83;;
48241;SDS011;34041;51.812;4.622;2023-04-07T04:07:46;6.10;;;4.33;;
48241;SDS011;34041;51.812;4.622;2023-04-07T04:10:46;11.13;;;4.23;;
48241;SDS011;34041;51.812;4.622;2023-04-07T04:13:46;8.93;;;4.17;;
48241;SDS011;34041;51.812;4.622;2023-04-07T04:16:46;10.90;;;4.45;;
48241;SDS011;34041;51.812;4.622;2023-04-07T04:19:47;9.23;;;3.95;;
48241;SDS011;34041;51.812;4.622;2023-04-07T04:22:47;6.50;;;3.40;;
48241;SDS011;34041;51.812;4.622;2023-04-07T04:25:47;8.93;;;3.90;;
48241;SDS011;34041;51.812;4.622;2023-04-07T04:28:47;7.13;;;4.03;;
48241;SDS011;34041;51.812;4.622;2023-04-07T04:31:48;7.83;;;4.77;;
48241;SDS011;34041;51.812;4.622;2023-04-07T04:34:48;8.10;;;4.10;;
48241;SDS011;34041;51.812;4.622;2023-04-07T04:37:48;6.07;;;3.77;;
48241;SDS011;34041;51.812;4.622;2023-04-07T04:40:48;5.57;;;3.60;;
48241;SDS011;34041;51.812;4.622;2023-04-07T04:43:48;7.43;;;3.17;;
48241;SDS011;34041;51.812;4.622;2023-04-07T04:46:49;6.97;;;3.33;;
48241;SDS011;34041;51.812;4.622;2023-04-07T04:49:49;5.45;;;3.15;;
48241;SDS011;34041;51.812;4.622;2023-04-07T04:52:50;5.32;;;3.45;;
48241;SDS011;34041;51.812;4.622;2023-04-07T04:55:50;5.85;;;3.53;;
48241;SDS011;34041;51.812;4.622;2023-04-07T04:58:52;7.55;;;3.72;;
48241;SDS011;34041;51.812;4.622;2023-04-07T05:01:52;4.97;;;3.03;;
48241;SDS011;34041;51.812;4.622;2023-04-07T05:04:52;7.93;;;4.43;;
48241;SDS011;34041;51.812;4.622;2023-04-07T05:07:52;4.50;;;3.37;;
48241;SDS011;34041;51.812;4.622;2023-04-07T05:10:52;3.90;;;2.95;;
48241;SDS011;34041;51.812;4.622;2023-04-07T05:13:54;6.60;;;2.55;;
48241;SDS011;34041;51.812;4.622;2023-04-07T05:16:54;13.23;;;3.67;;
48241;SDS011;34041;51.812;4.622;2023-04-07T05:19:54;8.30;;;2.97;;
48241;SDS011;34041;51.812;4.622;2023-04-07T05:22:54;7.13;;;3.20;;
48241;SDS011;34041;51.812;4.622;2023-04-07T05:25:55;6.30;;;2.95;;
48241;SDS011;34041;51.812;4.622;2023-04-07T05:28:55;4.90;;;2.47;;
48241;SDS011;34041;51.812;4.622;2023-04-07T05:31:55;6.07;;;2.80;;
48241;SDS011;34041;51.812;4.622;2023-04-07T05:34:56;5.93;;;2.97;;
48241;SDS011;34041;51.812;4.622;2023-04-07T05:37:56;3.58;;;2.38;;
48241;SDS011;34041;51.812;4.622;2023-04-07T05:40:56;7.50;;;2.57;;
48241;SDS011;34041;51.812;4.622;2023-04-07T05:43:56;5.77;;;2.80;;
48241;SDS011;34041;51.812;4.622;2023-04-07T05:46:57;6.53;;;2.63;;
48241;SDS011;34041;51.812;4.622;2023-04-07T05:49:57;6.53;;;2.65;;
48241;SDS011;34041;51.812;4.622;2023-04-07T05:52:57;8.23;;;2.85;;
48241;SDS011;34041;51.812;4.622;2023-04-07T05:55:57;5.10;;;2.30;;
48241;SDS011;34041;51.812;4.622;2023-04-07T05:58:57;4.70;;;2.20;;
48241;SDS011;34041;51.812;4.622;2023-04-07T06:01:59;3.80;;;2.20;;
48241;SDS011;34041;51.812;4.622;2023-04-07T06:04:59;7.63;;;3.20;;
48241;SDS011;34041;51.812;4.622;2023-04-07T06:08:00;6.20;;;2.10;;
48241;SDS011;34041;51.812;4.622;2023-04-07T06:11:00;6.03;;;2.50;;
48241;SDS011;34041;51.812;4.622;2023-04-07T06:14:00;4.03;;;2.03;;
48241;SDS011;34041;51.812;4.622;2023-04-07T06:17:01;4.40;;;1.87;;
48241;SDS011;34041;51.812;4.622;2023-04-07T06:20:01;4.82;;;1.85;;
48241;SDS011;34041;51.812;4.622;2023-04-07T06:23:01;3.45;;;1.52;;
48241;SDS011;34041;51.812;4.622;2023-04-07T06:26:01;6.33;;;2.57;;
48241;SDS011;34041;51.812;4.622;2023-04-07T06:29:02;3.17;;;1.80;;
48241;SDS011;34041;51.812;4.622;2023-04-07T06:32:02;5.93;;;2.83;;
48241;SDS011;34041;51.812;4.622;2023-04-07T06:35:02;5.50;;;2.17;;
48241;SDS011;34041;51.812;4.622;2023-04-07T06:38:02;6.47;;;1.70;;
48241;SDS011;34041;51.812;4.622;2023-04-07T06:41:03;5.03;;;2.23;;
48241;SDS011;34041;51.812;4.622;2023-04-07T06:44:03;4.80;;;1.83;;
48241;SDS011;34041;51.812;4.622;2023-04-07T06:47:03;3.35;;;1.50;;
48241;SDS011;34041;51.812;4.622;2023-04-07T06:50:04;7.40;;;1.80;;
48241;SDS011;34041;51.812;4.622;2023-04-07T06:53:04;3.75;;;1.52;;
48241;SDS011;34041;51.812;4.622;2023-04-07T06:56:06;7.45;;;2.85;;
48241;SDS011;34041;51.812;4.622;2023-04-07T06:59:06;9.18;;;1.90;;
48241;SDS011;34041;51.812;4.622;2023-04-07T07:02:06;3.93;;;1.70;;
48241;SDS011;34041;51.812;4.622;2023-04-07T07:05:06;5.33;;;2.33;;
48241;SDS011;34041;51.812;4.622;2023-04-07T07:08:07;5.95;;;2.30;;
48241;SDS011;34041;51.812;4.622;2023-04-07T07:11:07;4.67;;;1.57;;
48241;SDS011;34041;51.812;4.622;2023-04-07T07:14:07;4.45;;;1.85;;
48241;SDS011;34041;51.812;4.622;2023-04-07T07:17:08;3.88;;;1.65;;
48241;SDS011;34041;51.812;4.622;2023-04-07T07:20:08;5.13;;;1.80;;
48241;SDS011;34041;51.812;4.622;2023-04-07T07:23:08;4.00;;;1.42;;
48241;SDS011;34041;51.812;4.622;2023-04-07T07:26:09;3.88;;;1.23;;
48241;SDS011;34041;51.812;4.622;2023-04-07T07:29:09;4.07;;;1.37;;
48241;SDS011;34041;51.812;4.622;2023-04-07T07:32:09;4.60;;;1.33;;
48241;SDS011;34041;51.812;4.622;2023-04-07T07:35:10;5.22;;;1.25;;
48241;SDS011;34041;51.812;4.622;2023-04-07T07:38:10;3.00;;;1.67;;
48241;SDS011;34041;51.812;4.622;2023-04-07T07:41:10;6.07;;;2.17;;
48241;SDS011;34041;51.812;4.622;2023-04-07T07:44:10;5.70;;;2.17;;
48241;SDS011;34041;51.812;4.622;2023-04-07T07:47:11;6.18;;;1.40;;
48241;SDS011;34041;51.812;4.622;2023-04-07T07:50:11;2.83;;;1.27;;
48241;SDS011;34041;51.812;4.622;2023-04-07T07:53:11;6.13;;;1.63;;
48241;SDS011;34041;51.812;4.622;2023-04-07T07:56:12;3.37;;;1.50;;
48241;SDS011;34041;51.812;4.622;2023-04-07T07:59:12;4.85;;;1.52;;
48241;SDS011;34041;51.812;4.622;2023-04-07T08:02:12;3.70;;;1.20;;
48241;SDS011;34041;51.812;4.622;2023-04-07T08:05:12;5.40;;;1.77;;
48241;SDS011;34041;51.812;4.622;2023-04-07T08:08:13;5.10;;;1.33;;
48241;SDS011;34041;51.812;4.622;2023-04-07T08:11:13;4.47;;;1.35;;
48241;SDS011;34041;51.812;4.622;2023-04-07T08:14:13;8.60;;;1.63;;
48241;SDS011;34041;51.812;4.622;2023-04-07T08:17:14;5.90;;;1.80;;
48241;SDS011;34041;51.812;4.622;2023-04-07T08:20:14;9.88;;;2.00;;
48241;SDS011;34041;51.812;4.622;2023-04-07T08:23:15;3.97;;;1.67;;
48241;SDS011;34041;51.812;4.622;2023-04-07T08:26:15;6.78;;;2.10;;
48241;SDS011;34041;51.812;4.622;2023-04-07T08:29:15;5.15;;;1.60;;
48241;SDS011;34041;51.812;4.622;2023-04-07T08:32:16;7.37;;;2.27;;
48241;SDS011;34041;51.812;4.622;2023-04-07T08:35:16;6.87;;;1.60;;
48241;SDS011;34041;51.812;4.622;2023-04-07T08:38:16;6.67;;;1.37;;
48241;SDS011;34041;51.812;4.622;2023-04-07T08:41:17;3.22;;;1.23;;
48241;SDS011;34041;51.812;4.622;2023-04-07T08:44:18;3.63;;;1.35;;
48241;SDS011;34041;51.812;4.622;2023-04-07T08:47:20;5.90;;;1.15;;
48241;SDS011;34041;51.812;4.622;2023-04-07T08:50:21;3.05;;;1.30;;
48241;SDS011;34041;51.812;4.622;2023-04-07T08:53:25;4.43;;;1.40;;
48241;SDS011;34041;51.812;4.622;2023-04-07T08:56:28;5.73;;;1.40;;
48241;SDS011;34041;51.812;4.622;2023-04-07T08:59:28;5.32;;;1.80;;
48241;SDS011;34041;51.812;4.622;2023-04-07T09:02:31;3.13;;;1.15;;
48241;SDS011;34041;51.812;4.622;2023-04-07T09:05:32;2.38;;;1.15;;
48241;SDS011;34041;51.812;4.622;2023-04-07T09:08:32;4.80;;;1.92;;
48241;SDS011;34041;51.812;4.622;2023-04-07T09:11:37;4.60;;;1.73;;
48241;SDS011;34041;51.812;4.622;2023-04-07T09:17:37;5.15;;;1.10;;
48241;SDS011;34041;51.812;4.622;2023-04-07T09:23:57;4.18;;;1.60;;
48241;SDS011;34041;51.812;4.622;2023-04-07T09:27:10;7.60;;;3.23;;
48241;SDS011;34041;51.812;4.622;2023-04-07T09:30:11;4.57;;;1.27;;
48241;SDS011;34041;51.812;4.622;2023-04-07T09:33:12;3.55;;;1.10;;
48241;SDS011;34041;51.812;4.622;2023-04-07T09:36:15;5.15;;;1.40;;
48241;SDS011;34041;51.812;4.622;2023-04-07T09:39:15;5.60;;;1.20;;
48241;SDS011;34041;51.812;4.622;2023-04-07T09:42:15;4.57;;;1.10;;
48241;SDS011;34041;51.812;4.622;2023-04-07T09:45:49;7.32;;;2.00;;
48241;SDS011;34041;51.812;4.622;2023-04-07T09:48:43;3.13;;;1.15;;
48241;SDS011;34041;51.812;4.622;2023-04-07T09:51:53;4.03;;;1.20;;
48241;SDS011;34041;51.812;4.622;2023-04-07T09:54:54;4.97;;;1.30;;
48241;SDS011;34041;51.812;4.622;2023-04-07T09:57:55;4.82;;;1.10;;
48241;SDS011;34041;51.812;4.622;2023-04-07T10:00:55;5.60;;;1.50;;
48241;SDS011;34041;51.812;4.622;2023-04-07T10:03:56;6.53;;;1.77;;
48241;SDS011;34041;51.812;4.622;2023-04-07T10:06:57;4.43;;;1.50;;
48241;SDS011;34041;51.812;4.622;2023-04-07T10:09:58;7.78;;;1.88;;
48241;SDS011;34041;51.812;4.622;2023-04-07T10:12:59;5.28;;;1.27;;
48241;SDS011;34041;51.812;4.622;2023-04-07T10:16:01;4.95;;;1.05;;
48241;SDS011;34041;51.812;4.622;2023-04-07T10:19:02;4.55;;;1.00;;
48241;SDS011;34041;51.812;4.622;2023-04-07T10:22:03;3.22;;;1.20;;
48241;SDS011;34041;51.812;4.622;2023-04-07T10:25:05;6.00;;;1.30;;
48241;SDS011;34041;51.812;4.622;2023-04-07T10:28:08;4.35;;;1.33;;
48241;SDS011;34041;51.812;4.622;2023-04-07T10:31:10;5.65;;;1.10;;
48241;SDS011;34041;51.812;4.622;2023-04-07T10:34:11;4.28;;;1.05;;
48241;SDS011;34041;51.812;4.622;2023-04-07T10:37:12;5.10;;;1.20;;
48241;SDS011;34041;51.812;4.622;2023-04-07T10:43:35;3.05;;;1.10;;
48241;SDS011;34041;51.812;4.622;2023-04-07T10:53:12;5.68;;;1.45;;
48241;SDS011;34041;51.812;4.622;2023-04-07T10:56:13;7.75;;;1.95;;
48241;SDS011;34041;51.812;4.622;2023-04-07T10:59:13;2.67;;;1.30;;
48241;SDS011;34041;51.812;4.622;2023-04-07T11:05:21;3.35;;;1.30;;
48241;SDS011;34041;51.812;4.622;2023-04-07T11:08:31;4.47;;;1.55;;
48241;SDS011;34041;51.812;4.622;2023-04-07T11:11:35;5.18;;;1.67;;
48241;SDS011;34041;51.812;4.622;2023-04-07T11:14:37;3.20;;;1.10;;
48241;SDS011;34041;51.812;4.622;2023-04-07T11:17:39;9.20;;;1.63;;
48241;SDS011;34041;51.812;4.622;2023-04-07T11:23:45;7.53;;;1.75;;
48241;SDS011;34041;51.812;4.622;2023-04-07T11:26:46;4.82;;;1.95;;
48241;SDS011;34041;51.812;4.622;2023-04-07T11:29:46;5.80;;;1.20;;
48241;SDS011;34041;51.812;4.622;2023-04-07T11:32:47;7.57;;;1.48;;
48241;SDS011;34041;51.812;4.622;2023-04-07T11:38:47;7.50;;;1.40;;
48241;SDS011;34041;51.812;4.622;2023-04-07T11:41:48;5.80;;;1.27;;
48241;SDS011;34041;51.812;4.622;2023-04-07T11:44:49;5.25;;;1.85;;
48241;SDS011;34041;51.812;4.622;2023-04-07T11:47:49;2.95;;;1.00;;
48241;SDS011;34041;51.812;4.622;2023-04-07T11:50:49;3.72;;;1.50;;
48241;SDS011;34041;51.812;4.622;2023-04-07T11:53:53;5.93;;;1.70;;
48241;SDS011;34041;51.812;4.622;2023-04-07T11:56:53;9.82;;;1.55;;
48241;SDS011;34041;51.812;4.622;2023-04-07T12:00:04;7.70;;;1.83;;
48241;SDS011;34041;51.812;4.622;2023-04-07T12:03:08;5.60;;;1.55;;
48241;SDS011;34041;51.812;4.622;2023-04-07T12:06:09;6.20;;;2.10;;
48241;SDS011;34041;51.812;4.622;2023-04-07T12:12:29;5.68;;;1.75;;
48241;SDS011;34041;51.812;4.622;2023-04-07T12:15:29;6.72;;;1.65;;
48241;SDS011;34041;51.812;4.622;2023-04-07T12:18:29;4.72;;;1.05;;
48241;SDS011;34041;51.812;4.622;2023-04-07T12:21:30;6.53;;;1.70;;
48241;SDS011;34041;51.812;4.622;2023-04-07T12:24:30;3.85;;;1.35;;
48241;SDS011;34041;51.812;4.622;2023-04-07T12:27:31;4.68;;;1.20;;
48241;SDS011;34041;51.812;4.622;2023-04-07T12:30:31;6.33;;;1.93;;
48241;SDS011;34041;51.812;4.622;2023-04-07T12:33:32;5.93;;;1.38;;
48241;SDS011;34041;51.812;4.622;2023-04-07T12:36:32;6.97;;;1.15;;
48241;SDS011;34041;51.812;4.622;2023-04-07T12:39:32;3.23;;;1.27;;
48241;SDS011;34041;51.812;4.622;2023-04-07T12:42:32;4.17;;;1.53;;
48241;SDS011;34041;51.812;4.622;2023-04-07T12:45:33;4.80;;;1.48;;
48241;SDS011;34041;51.812;4.622;2023-04-07T12:48:33;4.57;;;1.67;;
48241;SDS011;34041;51.812;4.622;2023-04-07T12:51:33;6.93;;;1.70;;
48241;SDS011;34041;51.812;4.622;2023-04-07T12:54:33;6.30;;;1.77;;
48241;SDS011;34041;51.812;4.622;2023-04-07T12:57:34;7.10;;;1.42;;
48241;SDS011;34041;51.812;4.622;2023-04-07T13:00:34;5.70;;;1.60;;
48241;SDS011;34041;51.812;4.622;2023-04-07T13:03:34;3.30;;;1.25;;
48241;SDS011;34041;51.812;4.622;2023-04-07T13:06:35;5.83;;;1.43;;
48241;SDS011;34041;51.812;4.622;2023-04-07T13:09:35;5.10;;;1.50;;
48241;SDS011;34041;51.812;4.622;2023-04-07T13:12:35;5.53;;;1.50;;
48241;SDS011;34041;51.812;4.622;2023-04-07T13:15:35;6.00;;;1.20;;
48241;SDS011;34041;51.812;4.622;2023-04-07T13:18:36;4.85;;;1.38;;
48241;SDS011;34041;51.812;4.622;2023-04-07T13:21:36;5.53;;;2.07;;
48241;SDS011;34041;51.812;4.622;2023-04-07T13:24:36;4.20;;;1.70;;
48241;SDS011;34041;51.812;4.622;2023-04-07T13:27:37;4.67;;;2.03;;
48241;SDS011;34041;51.812;4.622;2023-04-07T13:30:37;5.63;;;1.97;;
48241;SDS011;34041;51.812;4.622;2023-04-07T13:33:38;2.35;;;1.77;;
48241;SDS011;34041;51.812;4.622;2023-04-07T13:36:40;9.52;;;1.88;;
48241;SDS011;34041;51.812;4.622;2023-04-07T13:39:40;5.10;;;1.80;;
48241;SDS011;34041;51.812;4.622;2023-04-07T13:42:41;6.32;;;1.52;;
48241;SDS011;34041;51.812;4.622;2023-04-07T13:45:41;5.30;;;1.70;;
48241;SDS011;34041;51.812;4.622;2023-04-07T13:48:42;7.50;;;2.27;;
48241;SDS011;34041;51.812;4.622;2023-04-07T13:51:42;3.53;;;2.03;;
48241;SDS011;34041;51.812;4.622;2023-04-07T13:54:42;4.00;;;1.58;;
48241;SDS011;34041;51.812;4.622;2023-04-07T13:57:44;2.95;;;1.40;;
48241;SDS011;34041;51.812;4.622;2023-04-07T14:00:44;4.28;;;1.73;;
48241;SDS011;34041;51.812;4.622;2023-04-07T14:03:45;3.95;;;1.40;;
48241;SDS011;34041;51.812;4.622;2023-04-07T14:06:45;6.10;;;1.58;;
48241;SDS011;34041;51.812;4.622;2023-04-07T14:09:45;3.80;;;1.80;;
48241;SDS011;34041;51.812;4.622;2023-04-07T14:12:47;2.63;;;1.17;;
48241;SDS011;34041;51.812;4.622;2023-04-07T14:15:48;6.07;;;1.45;;
48241;SDS011;34041;51.812;4.622;2023-04-07T14:18:48;4.00;;;1.50;;
48241;SDS011;34041;51.812;4.622;2023-04-07T14:21:50;3.30;;;1.35;;
48241;SDS011;34041;51.812;4.622;2023-04-07T14:24:50;3.92;;;1.30;;
48241;SDS011;34041;51.812;4.622;2023-04-07T14:27:51;7.72;;;1.67;;
48241;SDS011;34041;51.812;4.622;2023-04-07T14:30:51;3.08;;;1.27;;
48241;SDS011;34041;51.812;4.622;2023-04-07T14:33:51;4.20;;;1.60;;
48241;SDS011;34041;51.812;4.622;2023-04-07T14:36:55;3.95;;;1.20;;
48241;SDS011;34041;51.812;4.622;2023-04-07T14:39:57;7.45;;;2.15;;
48241;SDS011;34041;51.812;4.622;2023-04-07T14:42:58;4.10;;;1.80;;
48241;SDS011;34041;51.812;4.622;2023-04-07T14:45:58;5.00;;;1.50;;
48241;SDS011;34041;51.812;4.622;2023-04-07T14:48:58;3.77;;;1.10;;
48241;SDS011;34041;51.812;4.622;2023-04-07T14:51:59;5.50;;;1.52;;
48241;SDS011;34041;51.812;4.622;2023-04-07T14:54:59;3.13;;;1.30;;
48241;SDS011;34041;51.812;4.622;2023-04-07T14:58:00;4.45;;;1.92;;
48241;SDS011;34041;51.812;4.622;2023-04-07T15:01:00;5.40;;;1.70;;
48241;SDS011;34041;51.812;4.622;2023-04-07T15:04:00;4.43;;;1.67;;
48241;SDS011;34041;51.812;4.622;2023-04-07T15:07:01;3.92;;;1.63;;
48241;SDS011;34041;51.812;4.622;2023-04-07T15:10:01;9.00;;;1.83;;
48241;SDS011;34041;51.812;4.622;2023-04-07T15:13:01;2.83;;;1.33;;
48241;SDS011;34041;51.812;4.622;2023-04-07T15:16:08;4.32;;;1.52;;
48241;SDS011;34041;51.812;4.622;2023-04-07T15:19:09;4.18;;;1.67;;
48241;SDS011;34041;51.812;4.622;2023-04-07T15:22:09;5.72;;;1.60;;
48241;SDS011;34041;51.812;4.622;2023-04-07T15:25:10;4.50;;;1.60;;
48241;SDS011;34041;51.812;4.622;2023-04-07T15:28:10;5.10;;;2.08;;
48241;SDS011;34041;51.812;4.622;2023-04-07T15:31:10;8.43;;;1.40;;
48241;SDS011;34041;51.812;4.622;2023-04-07T15:34:10;4.55;;;1.85;;
48241;SDS011;34041;51.812;4.622;2023-04-07T15:37:11;5.38;;;1.38;;
48241;SDS011;34041;51.812;4.622;2023-04-07T15:40:13;5.35;;;2.35;;
48241;SDS011;34041;51.812;4.622;2023-04-07T15:43:13;6.97;;;1.70;;
48241;SDS011;34041;51.812;4.622;2023-04-07T15:46:14;5.38;;;1.63;;
48241;SDS011;34041;51.812;4.622;2023-04-07T15:49:14;5.18;;;1.50;;
48241;SDS011;34041;51.812;4.622;2023-04-07T15:52:19;4.43;;;1.38;;
48241;SDS011;34041;51.812;4.622;2023-04-07T15:55:19;6.78;;;1.67;;
48241;SDS011;34041;51.812;4.622;2023-04-07T15:58:19;7.80;;;1.83;;
48241;SDS011;34041;51.812;4.622;2023-04-07T16:01:19;5.77;;;1.80;;
48241;SDS011;34041;51.812;4.622;2023-04-07T16:04:20;6.55;;;2.03;;
48241;SDS011;34041;51.812;4.622;2023-04-07T16:07:20;3.45;;;1.50;;
48241;SDS011;34041;51.812;4.622;2023-04-07T16:10:20;5.55;;;1.73;;
48241;SDS011;34041;51.812;4.622;2023-04-07T16:13:20;6.22;;;2.25;;
48241;SDS011;34041;51.812;4.622;2023-04-07T16:16:21;6.40;;;2.50;;
48241;SDS011;34041;51.812;4.622;2023-04-07T16:19:21;7.13;;;2.42;;
48241;SDS011;34041;51.812;4.622;2023-04-07T16:22:21;7.50;;;2.53;;
48241;SDS011;34041;51.812;4.622;2023-04-07T16:25:22;5.00;;;2.10;;
48241;SDS011;34041;51.812;4.622;2023-04-07T16:28:22;4.45;;;1.73;;
48241;SDS011;34041;51.812;4.622;2023-04-07T16:31:22;4.95;;;1.70;;
48241;SDS011;34041;51.812;4.622;2023-04-07T16:34:22;5.93;;;1.97;;
48241;SDS011;34041;51.812;4.622;2023-04-07T16:37:23;5.40;;;1.70;;
48241;SDS011;34041;51.812;4.622;2023-04-07T16:40:23;4.97;;;1.80;;
48241;SDS011;34041;51.812;4.622;2023-04-07T16:43:23;5.60;;;1.90;;
48241;SDS011;34041;51.812;4.622;2023-04-07T16:46:27;5.13;;;2.00;;
48241;SDS011;34041;51.812;4.622;2023-04-07T16:49:27;5.65;;;1.92;;
48241;SDS011;34041;51.812;4.622;2023-04-07T16:52:27;4.40;;;1.90;;
48241;SDS011;34041;51.812;4.622;2023-04-07T16:55:27;3.60;;;1.50;;
48241;SDS011;34041;51.812;4.622;2023-04-07T16:58:28;2.83;;;1.40;;
48241;SDS011;34041;51.812;4.622;2023-04-07T17:01:28;3.23;;;1.80;;
48241;SDS011;34041;51.812;4.622;2023-04-07T17:04:29;5.38;;;2.15;;
48241;SDS011;34041;51.812;4.622;2023-04-07T17:07:29;6.10;;;1.90;;
48241;SDS011;34041;51.812;4.622;2023-04-07T17:10:29;4.15;;;1.10;;
48241;SDS011;34041;51.812;4.622;2023-04-07T17:13:31;4.53;;;1.67;;
48241;SDS011;34041;51.812;4.622;2023-04-07T17:16:31;5.38;;;1.63;;
48241;SDS011;34041;51.812;4.622;2023-04-07T17:19:31;4.50;;;1.77;;
48241;SDS011;34041;51.812;4.622;2023-04-07T17:22:31;5.15;;;1.77;;
48241;SDS011;34041;51.812;4.622;2023-04-07T17:25:32;4.40;;;1.42;;
48241;SDS011;34041;51.812;4.622;2023-04-07T17:28:32;4.93;;;1.77;;
48241;SDS011;34041;51.812;4.622;2023-04-07T17:31:32;8.37;;;2.03;;
48241;SDS011;34041;51.812;4.622;2023-04-07T17:34:34;6.90;;;1.70;;
48241;SDS011;34041;51.812;4.622;2023-04-07T17:37:35;8.02;;;2.13;;
48241;SDS011;34041;51.812;4.622;2023-04-07T17:40:35;5.85;;;1.77;;
48241;SDS011;34041;51.812;4.622;2023-04-07T17:43:35;5.17;;;1.67;;
48241;SDS011;34041;51.812;4.622;2023-04-07T17:46:35;5.03;;;2.33;;
48241;SDS011;34041;51.812;4.622;2023-04-07T17:49:36;4.20;;;2.23;;
48241;SDS011;34041;51.812;4.622;2023-04-07T17:52:36;6.20;;;2.33;;
48241;SDS011;34041;51.812;4.622;2023-04-07T17:55:36;5.93;;;1.75;;
48241;SDS011;34041;51.812;4.622;2023-04-07T17:58:37;8.18;;;2.25;;
48241;SDS011;34041;51.812;4.622;2023-04-07T18:01:37;8.97;;;1.73;;
48241;SDS011;34041;51.812;4.622;2023-04-07T18:04:37;6.83;;;2.13;;
48241;SDS011;34041;51.812;4.622;2023-04-07T18:07:38;4.47;;;1.90;;
48241;SDS011;34041;51.812;4.622;2023-04-07T18:10:39;6.53;;;2.40;;
48241;SDS011;34041;51.812;4.622;2023-04-07T18:13:39;4.63;;;1.55;;
48241;SDS011;34041;51.812;4.622;2023-04-07T18:16:39;4.65;;;2.45;;
48241;SDS011;34041;51.812;4.622;2023-04-07T18:19:40;4.72;;;2.20;;
48241;SDS011;34041;51.812;4.622;2023-04-07T18:22:40;4.50;;;1.80;;
48241;SDS011;34041;51.812;4.622;2023-04-07T18:25:41;9.15;;;2.20;;
48241;SDS011;34041;51.812;4.622;2023-04-07T18:28:41;7.15;;;2.33;;
48241;SDS011;34041;51.812;4.622;2023-04-07T18:31:41;13.20;;;2.50;;
48241;SDS011;34041;51.812;4.622;2023-04-07T18:34:44;4.90;;;1.85;;
48241;SDS011;34041;51.812;4.622;2023-04-07T18:37:46;5.38;;;2.03;;
48241;SDS011;34041;51.812;4.622;2023-04-07T18:40:46;5.90;;;2.17;;
48241;SDS011;34041;51.812;4.622;2023-04-07T18:43:46;7.63;;;2.27;;
48241;SDS011;34041;51.812;4.622;2023-04-07T18:46:47;7.22;;;2.17;;
48241;SDS011;34041;51.812;4.622;2023-04-07T18:49:47;4.27;;;2.47;;